createdAt,value
2022-08-14T00:01:03.947Z,99293.38
2022-08-14T00:03:37.198Z,99294.00
2022-08-14T00:06:13.869Z,99297.31
2022-08-14T00:08:51.061Z,99301.47
2022-08-14T00:11:17.720Z,99296.25
2022-08-14T00:13:44.414Z,99295.03
2022-08-14T00:16:40.833Z,99288.19
2022-08-14T00:19:19.586Z,99284.84
2022-08-14T00:21:50.060Z,99276.97
2022-08-14T00:24:23.363Z,99277.56
2022-08-14T00:27:02.204Z,99278.97
2022-08-14T00:29:33.148Z,99276.00
2022-08-14T00:33:01.688Z,99269.00
2022-08-14T00:34:56.366Z,99263.16
2022-08-14T00:37:23.212Z,99260.34
2022-08-14T00:39:50.980Z,99256.78
2022-08-14T00:42:52.795Z,99265.25
2022-08-14T00:45:10.005Z,99255.53
2022-08-14T00:47:44.789Z,99254.47
2022-08-14T00:50:17.849Z,99259.84
2022-08-14T00:52:52.204Z,99246.84
2022-08-14T00:55:19.986Z,99257.75
2022-08-14T00:58:07.648Z,99250.13
2022-08-14T01:00:37.397Z,99244.97
2022-08-14T01:03:16.990Z,99250.59
2022-08-14T01:06:02.294Z,99246.44
2022-08-14T01:08:57.575Z,99239.06
2022-08-14T01:12:02.574Z,99234.84
2022-08-14T01:14:29.587Z,99233.31
2022-08-14T01:16:56.240Z,99232.91
2022-08-14T01:19:43.506Z,99221.91
2022-08-14T01:22:12.591Z,99230.44
2022-08-14T01:24:43.371Z,99233.88
2022-08-14T01:27:17.422Z,99230.59
2022-08-14T01:30:03.158Z,99234.78
2022-08-14T01:32:35.607Z,99225.81
2022-08-14T01:35:19.345Z,99229.34
2022-08-14T01:37:56.555Z,99212.28
2022-08-14T01:40:36.672Z,99215.81
2022-08-14T01:43:18.538Z,99211.84
2022-08-14T01:46:06.032Z,99206.06
2022-08-14T01:48:37.198Z,99198.97
2022-08-14T01:51:06.033Z,99194.84
2022-08-14T01:53:54.652Z,99192.31
2022-08-14T01:56:37.233Z,99191.56
2022-08-14T01:59:38.088Z,99175.72
2022-08-14T02:02:18.953Z,99174.19
2022-08-14T02:04:55.147Z,99151.59
2022-08-14T02:07:27.190Z,99161.69
2022-08-14T02:10:13.207Z,99147.00
2022-08-14T02:12:46.138Z,99146.25
2022-08-14T02:15:21.967Z,99139.13
2022-08-14T02:17:49.870Z,99133.47
2022-08-14T02:20:17.777Z,99130.69
2022-08-14T02:22:51.999Z,99128.88
2022-08-14T02:25:20.927Z,99124.44
2022-08-14T02:28:23.505Z,99124.16
2022-08-14T02:30:38.240Z,99124.63
2022-08-14T02:33:07.144Z,99122.84
2022-08-14T02:35:33.807Z,99124.94
2022-08-14T02:38:07.674Z,99119.00
2022-08-14T02:40:38.741Z,99127.06
2022-08-14T02:43:07.948Z,99132.22
2022-08-14T02:45:38.864Z,99128.88
2022-08-14T02:49:04.241Z,99129.91
2022-08-14T02:51:07.109Z,99126.13
2022-08-14T02:53:37.397Z,99125.81
2022-08-14T02:56:30.830Z,99125.13
2022-08-14T02:58:52.824Z,99126.00
2022-08-14T03:01:24.257Z,99130.31
2022-08-14T03:03:58.191Z,99128.38
2022-08-14T03:06:34.908Z,99127.91
2022-08-14T03:09:11.628Z,99124.31
2022-08-14T03:11:39.684Z,99123.88
2022-08-14T03:14:12.222Z,99125.09
2022-08-14T03:16:45.397Z,99118.19
2022-08-14T03:19:16.282Z,99123.44
2022-08-14T03:21:46.464Z,99123.72
2022-08-14T03:24:23.340Z,99128.25
2022-08-14T03:26:56.072Z,99122.06
2022-08-14T03:29:26.451Z,99138.47
2022-08-14T03:31:54.007Z,99138.41
2022-08-14T03:34:24.788Z,99130.44
2022-08-14T03:37:28.953Z,99137.41
2022-08-14T03:39:59.073Z,99133.03
2022-08-14T03:42:35.904Z,99134.06
2022-08-14T03:45:20.330Z,99128.25
2022-08-14T03:47:58.276Z,99128.81
2022-08-14T03:50:30.931Z,99126.63
2022-08-14T03:53:02.824Z,99112.50
2022-08-14T03:55:30.633Z,99116.94
2022-08-14T03:57:57.977Z,99114.25
2022-08-14T04:00:44.274Z,99110.47
2022-08-14T04:03:17.945Z,99104.53
2022-08-14T04:05:50.066Z,99099.59
2022-08-14T04:08:30.055Z,99101.06
2022-08-14T04:10:59.487Z,99106.59
2022-08-14T04:13:31.695Z,99101.25
2022-08-14T04:16:06.816Z,99104.66
2022-08-14T04:18:42.489Z,99100.53
2022-08-14T04:21:10.299Z,99102.69
2022-08-14T04:23:37.407Z,99106.69
2022-08-14T04:26:14.926Z,99092.84
2022-08-14T04:29:08.649Z,99097.81
2022-08-14T04:33:02.299Z,99095.03
2022-08-14T04:34:28.276Z,99092.38
2022-08-14T04:37:22.099Z,99097.44
2022-08-14T04:40:10.541Z,99086.84
2022-08-14T04:42:56.109Z,99090.44
2022-08-14T04:45:23.978Z,99083.88
2022-08-14T04:48:12.766Z,99088.78
2022-08-14T04:50:54.089Z,99083.06
2022-08-14T04:53:34.911Z,99076.78
2022-08-14T04:56:03.335Z,99082.69
2022-08-14T04:58:34.145Z,99082.69
2022-08-14T05:01:02.843Z,99084.91
2022-08-14T05:03:33.177Z,99089.69
2022-08-14T05:06:01.966Z,99087.09
2022-08-14T05:08:31.952Z,99096.72
2022-08-14T05:11:19.207Z,99076.94
2022-08-14T05:14:33.803Z,99084.28
2022-08-14T05:16:33.101Z,99081.03
2022-08-14T05:19:18.037Z,99091.94
2022-08-14T05:21:57.281Z,99081.59
2022-08-14T05:24:27.216Z,99092.50
2022-08-14T05:26:54.160Z,99096.94
2022-08-14T05:29:21.754Z,99091.94
2022-08-14T05:31:48.893Z,99097.19
2022-08-14T05:34:17.331Z,99088.03
2022-08-14T05:36:50.506Z,99088.59
2022-08-14T05:39:28.420Z,99084.06
2022-08-14T05:41:54.893Z,99081.56
2022-08-14T05:44:22.138Z,99073.53
2022-08-14T05:46:48.874Z,99081.72
2022-08-14T05:49:16.151Z,99074.00
2022-08-14T05:51:46.658Z,99080.94
2022-08-14T05:54:13.927Z,99074.34
2022-08-14T05:56:54.249Z,99072.75
2022-08-14T05:59:36.637Z,99068.28
2022-08-14T06:02:06.653Z,99067.97
2022-08-14T06:04:33.140Z,99072.41
2022-08-14T06:06:59.609Z,99069.16
2022-08-14T06:09:26.023Z,99072.91
2022-08-14T06:11:53.070Z,99069.72
2022-08-14T06:14:23.970Z,99061.09
2022-08-14T06:16:52.928Z,99064.91
2022-08-14T06:19:19.593Z,99071.13
2022-08-14T06:21:46.410Z,99062.09
2022-08-14T06:24:18.041Z,99061.97
2022-08-14T06:26:54.085Z,99062.91
2022-08-14T06:29:23.046Z,99066.28
2022-08-14T06:32:00.315Z,99064.06
2022-08-14T06:35:02.225Z,99063.88
2022-08-14T06:37:13.637Z,99057.50
2022-08-14T06:39:44.252Z,99051.13
2022-08-14T06:42:22.331Z,99053.66
2022-08-14T06:44:57.886Z,99039.00
2022-08-14T06:47:24.906Z,99038.19
2022-08-14T06:49:56.037Z,99038.81
2022-08-14T06:52:24.834Z,99027.91
2022-08-14T06:54:51.504Z,99026.44
2022-08-14T06:57:18.850Z,99018.78
2022-08-14T06:59:48.157Z,99017.78
2022-08-14T07:02:35.972Z,99009.56
2022-08-14T07:05:23.573Z,99010.38
2022-08-14T07:07:51.160Z,99010.19
2022-08-14T07:10:17.701Z,99003.56
2022-08-14T07:12:54.373Z,99002.31
2022-08-14T07:15:29.305Z,98990.72
2022-08-14T07:17:55.919Z,98997.31
2022-08-14T07:20:31.076Z,98985.50
2022-08-14T07:23:07.905Z,98987.13
2022-08-14T07:25:42.055Z,98981.97
2022-08-14T07:28:20.385Z,98983.16
2022-08-14T07:30:51.181Z,98980.22
2022-08-14T07:33:20.907Z,98983.09
2022-08-14T07:35:58.593Z,98984.28
2022-08-14T07:38:32.106Z,98969.75
2022-08-14T07:41:11.706Z,98971.78
2022-08-14T07:43:42.533Z,98968.66
2022-08-14T07:46:10.754Z,98967.56
2022-08-14T07:48:43.809Z,98967.53
2022-08-14T07:51:11.353Z,98964.81
2022-08-14T07:53:40.404Z,98974.94
2022-08-14T07:56:21.491Z,98979.22
2022-08-14T07:58:54.198Z,98983.53
2022-08-14T08:01:26.212Z,98984.28
2022-08-14T08:03:59.431Z,98979.31
2022-08-14T08:06:26.826Z,98987.78
2022-08-14T08:09:00.954Z,98991.59
2022-08-14T08:11:34.947Z,98993.81
2022-08-14T08:14:17.273Z,98993.16
2022-08-14T08:16:46.406Z,98987.94
2022-08-14T08:19:14.179Z,98987.44
2022-08-14T08:21:43.826Z,98992.94
2022-08-14T08:24:12.412Z,98986.56
2022-08-14T08:26:41.734Z,98986.94
2022-08-14T08:29:09.483Z,98985.59
2022-08-14T08:31:51.925Z,98976.38
2022-08-14T08:34:20.805Z,98979.00
2022-08-14T08:36:50.876Z,98969.16
2022-08-14T08:39:22.415Z,98964.66
2022-08-14T08:41:53.658Z,98952.97
2022-08-14T08:44:32.678Z,98948.53
2022-08-14T08:47:05.792Z,98951.84
2022-08-14T08:49:48.862Z,98955.16
2022-08-14T08:52:31.778Z,98948.72
2022-08-14T08:54:59.675Z,98957.22
2022-08-14T08:57:27.604Z,98950.91
2022-08-14T08:59:55.000Z,98950.09
2022-08-14T09:02:26.125Z,98941.63
2022-08-14T09:05:02.091Z,98938.75
2022-08-14T09:07:28.543Z,98943.81
2022-08-14T09:09:59.313Z,98938.88
2022-08-14T09:12:31.521Z,98932.41
2022-08-14T09:15:00.839Z,98936.41
2022-08-14T09:17:28.105Z,98938.59
2022-08-14T09:19:55.189Z,98935.91
2022-08-14T09:22:43.300Z,98928.00
2022-08-14T09:25:10.168Z,98928.13
2022-08-14T09:27:38.106Z,98923.19
2022-08-14T09:30:30.998Z,98912.59
2022-08-14T09:33:12.427Z,98912.06
2022-08-14T09:36:18.697Z,98903.09
2022-08-14T09:39:05.361Z,98906.34
2022-08-14T09:42:21.537Z,98902.59
2022-08-14T09:45:07.944Z,98896.78
2022-08-14T09:47:49.082Z,98901.25
2022-08-14T09:50:25.974Z,98894.03
2022-08-14T09:52:59.912Z,98889.59
2022-08-14T09:55:36.809Z,98890.41
2022-08-14T09:58:19.111Z,98890.72
2022-08-14T10:01:00.546Z,98895.16
2022-08-14T10:03:33.860Z,98891.13
2022-08-14T10:06:19.237Z,98879.03
2022-08-14T10:08:52.591Z,98880.41
2022-08-14T10:11:24.319Z,98868.50
2022-08-14T10:13:57.093Z,98870.25
2022-08-14T10:16:33.088Z,98866.44
2022-08-14T10:19:15.875Z,98860.00
2022-08-14T10:23:14.876Z,98856.00
2022-08-14T10:24:50.986Z,98851.50
2022-08-14T10:27:26.593Z,98846.50
2022-08-14T10:29:58.139Z,98835.13
2022-08-14T10:32:36.072Z,98845.88
2022-08-14T10:35:14.583Z,98840.25
2022-08-14T10:37:52.899Z,98846.13
2022-08-14T10:40:44.213Z,98822.47
2022-08-14T10:43:26.041Z,98832.44
2022-08-14T10:46:04.196Z,98836.69
2022-08-14T10:48:56.794Z,98836.25
2022-08-14T10:51:30.007Z,98824.31
2022-08-14T10:54:01.856Z,98824.44
2022-08-14T10:56:44.545Z,98827.50
2022-08-14T10:59:11.251Z,98824.50
2022-08-14T11:01:41.254Z,98818.78
2022-08-14T11:04:19.752Z,98822.53
2022-08-14T11:06:53.432Z,98812.97
2022-08-14T11:09:20.034Z,98816.16
2022-08-14T11:11:55.369Z,98804.19
2022-08-14T11:14:23.062Z,98811.09
2022-08-14T11:16:54.048Z,98807.56
2022-08-14T11:19:25.076Z,98798.00
2022-08-14T11:21:55.427Z,98797.72
2022-08-14T11:24:50.713Z,98784.91
2022-08-14T11:27:19.117Z,98773.47
2022-08-14T11:29:52.846Z,98776.47
2022-08-14T11:32:28.134Z,98770.81
2022-08-14T11:34:58.174Z,98773.88
2022-08-14T11:37:39.379Z,98768.69
2022-08-14T11:40:16.134Z,98757.66
2022-08-14T11:42:57.422Z,98760.53
2022-08-14T11:45:29.841Z,98752.97
2022-08-14T11:48:13.239Z,98749.59
2022-08-14T11:50:43.775Z,98737.97
2022-08-14T11:53:31.387Z,98756.53
2022-08-14T11:56:06.097Z,98743.75
2022-08-14T11:58:34.004Z,98745.41
2022-08-14T12:01:07.812Z,98742.97
2022-08-14T12:03:51.535Z,98735.63
2022-08-14T12:06:29.772Z,98732.06
2022-08-14T12:09:08.754Z,98730.72
2022-08-14T12:11:47.027Z,98727.66
2022-08-14T12:14:31.067Z,98718.69
2022-08-14T12:17:12.187Z,98714.63
2022-08-14T12:19:45.466Z,98716.81
2022-08-14T12:22:12.165Z,98713.28
2022-08-14T12:24:52.399Z,98710.81
2022-08-14T12:27:19.551Z,98714.63
2022-08-14T12:29:55.135Z,98703.47
2022-08-14T12:32:21.553Z,98699.38
2022-08-14T12:34:54.323Z,98704.56
2022-08-14T12:37:30.431Z,98707.28
2022-08-14T12:40:12.606Z,98699.13
2022-08-14T12:42:52.594Z,98699.66
2022-08-14T12:45:31.229Z,98701.84
2022-08-14T12:48:21.788Z,98683.59
2022-08-14T12:50:54.217Z,98687.09
2022-08-14T12:53:20.942Z,98676.44
2022-08-14T12:56:18.837Z,98686.78
2022-08-14T12:58:52.755Z,98680.03
2022-08-14T13:01:28.426Z,98680.59
2022-08-14T13:04:08.280Z,98673.19
2022-08-14T13:06:37.889Z,98660.63
2022-08-14T13:09:07.801Z,98649.13
2022-08-14T13:11:44.954Z,98657.31
2022-08-14T13:14:17.617Z,98654.34
2022-08-14T13:16:45.623Z,98638.78
2022-08-14T13:19:18.394Z,98643.75
2022-08-14T13:22:05.314Z,98637.53
2022-08-14T13:24:37.521Z,98631.56
2022-08-14T13:27:05.526Z,98627.72
2022-08-14T13:29:39.687Z,98632.91
2022-08-14T13:32:09.237Z,98628.53
2022-08-14T13:34:37.495Z,98620.88
2022-08-14T13:37:07.091Z,98627.66
2022-08-14T13:39:36.251Z,98620.81
2022-08-14T13:42:08.042Z,98617.31
2022-08-14T13:44:36.050Z,98617.56
2022-08-14T13:47:06.525Z,98614.28
2022-08-14T13:49:37.434Z,98614.84
2022-08-14T13:52:48.154Z,98614.59
2022-08-14T13:54:55.549Z,98604.53
2022-08-14T13:57:30.245Z,98599.16
2022-08-14T14:00:02.612Z,98591.53
2022-08-14T14:02:41.167Z,98597.53
2022-08-14T14:05:18.737Z,98585.00
2022-08-14T14:07:50.658Z,98579.56
2022-08-14T14:10:28.030Z,98591.25
2022-08-14T14:12:56.445Z,98586.91
2022-08-14T14:15:28.632Z,98587.19
2022-08-14T14:18:15.235Z,98583.91
2022-08-14T14:20:57.492Z,98582.00
2022-08-14T14:23:23.979Z,98575.22
2022-08-14T14:25:57.447Z,98566.75
2022-08-14T14:28:31.336Z,98561.88
2022-08-14T14:31:07.095Z,98568.09
2022-08-14T14:33:47.064Z,98569.72
2022-08-14T14:36:22.075Z,98569.19
2022-08-14T14:39:03.266Z,98565.13
2022-08-14T14:41:37.571Z,98571.91
2022-08-14T14:44:13.710Z,98559.41
2022-08-14T14:46:49.541Z,98564.81
2022-08-14T14:49:18.323Z,98556.06
2022-08-14T14:51:51.579Z,98554.97
2022-08-14T14:54:31.183Z,98559.84
2022-08-14T14:57:03.455Z,98551.13
2022-08-14T14:59:33.450Z,98552.75
2022-08-14T15:02:09.275Z,98538.34
2022-08-14T15:04:43.873Z,98542.41
2022-08-14T15:07:12.588Z,98544.31
2022-08-14T15:09:40.171Z,98537.81
2022-08-14T15:12:28.158Z,98544.06
2022-08-14T15:14:57.978Z,98536.44
2022-08-14T15:17:28.577Z,98536.44
2022-08-14T15:20:04.258Z,98535.06
2022-08-14T15:22:31.262Z,98541.03
2022-08-14T15:24:57.774Z,98534.50
2022-08-14T15:27:26.497Z,98528.81
2022-08-14T15:29:53.530Z,98535.84
2022-08-14T15:32:23.116Z,98529.88
2022-08-14T15:34:51.900Z,98523.34
2022-08-14T15:37:22.094Z,98532.59
2022-08-14T15:39:49.895Z,98529.31
2022-08-14T15:42:20.474Z,98524.97
2022-08-14T15:44:57.507Z,98520.34
2022-08-14T15:47:28.126Z,98519.78
2022-08-14T15:49:58.396Z,98527.66
2022-08-14T15:52:32.086Z,98514.88
2022-08-14T15:55:03.498Z,98518.38
2022-08-14T15:57:31.090Z,98519.97
2022-08-14T16:00:43.449Z,98520.50
2022-08-14T16:03:12.563Z,98524.28
2022-08-14T16:05:42.026Z,98517.75
2022-08-14T16:08:29.034Z,98504.44
2022-08-14T16:10:56.868Z,98509.03
2022-08-14T16:13:41.742Z,98512.31
2022-08-14T16:16:34.655Z,98512.00
2022-08-14T16:19:07.458Z,98507.13
2022-08-14T16:21:39.190Z,98507.91
2022-08-14T16:24:06.628Z,98508.75
2022-08-14T16:26:33.894Z,98500.88
2022-08-14T16:29:07.356Z,98499.25
2022-08-14T16:31:36.676Z,98497.63
2022-08-14T16:34:44.618Z,98498.97
2022-08-14T16:36:51.210Z,98489.72
2022-08-14T16:39:17.882Z,98489.44
2022-08-14T16:41:45.680Z,98490.50
2022-08-14T16:44:21.823Z,98486.69
2022-08-14T16:47:01.191Z,98482.59
2022-08-14T16:49:35.334Z,98486.38
2022-08-14T16:52:25.948Z,98474.16
2022-08-14T16:55:07.778Z,98479.03
2022-08-14T16:57:46.298Z,98480.38
2022-08-14T17:00:33.065Z,98473.78
2022-08-14T17:03:11.671Z,98476.78
2022-08-14T17:05:46.879Z,98468.34
2022-08-14T17:08:32.053Z,98472.91
2022-08-14T17:11:09.942Z,98462.28
2022-08-14T17:13:59.020Z,98466.34
2022-08-14T17:16:37.370Z,98467.41
2022-08-14T17:19:05.914Z,98465.19
2022-08-14T17:21:41.659Z,98470.91
2022-08-14T17:24:55.849Z,98472.22
2022-08-14T17:27:00.121Z,98466.50
2022-08-14T17:29:32.791Z,98466.78
2022-08-14T17:32:06.891Z,98468.09
2022-08-14T17:34:53.827Z,98460.22
2022-08-14T17:37:28.657Z,98461.31
2022-08-14T17:40:15.355Z,98459.38
2022-08-14T17:42:51.613Z,98455.81
2022-08-14T17:45:26.739Z,98458.47
2022-08-14T17:47:56.940Z,98448.88
2022-08-14T17:50:58.685Z,98450.78
2022-08-14T17:53:27.515Z,98458.09
2022-08-14T17:56:01.916Z,98460.81
2022-08-14T17:58:38.565Z,98457.81
2022-08-14T18:01:13.025Z,98456.13
2022-08-14T18:03:46.720Z,98464.78
2022-08-14T18:06:38.426Z,98463.38
2022-08-14T18:09:08.436Z,98459.50
2022-08-14T18:12:01.336Z,98455.44
2022-08-14T18:14:32.018Z,98459.22
2022-08-14T18:17:00.291Z,98451.00
2022-08-14T18:19:29.163Z,98454.78
2022-08-14T18:22:00.128Z,98460.13
2022-08-14T18:24:31.937Z,98453.84
2022-08-14T18:27:14.836Z,98454.13
2022-08-14T18:29:56.242Z,98457.34
2022-08-14T18:32:27.166Z,98455.63
2022-08-14T18:35:11.159Z,98455.25
2022-08-14T18:37:41.108Z,98454.94
2022-08-14T18:40:22.460Z,98454.31
2022-08-14T18:43:03.418Z,98464.00
2022-08-14T18:45:33.511Z,98464.28
2022-08-14T18:48:18.722Z,98462.06
2022-08-14T18:51:06.116Z,98456.34
2022-08-14T18:53:55.609Z,98465.22
2022-08-14T18:57:01.185Z,98465.72
2022-08-14T18:59:35.495Z,98464.34
2022-08-14T19:02:30.518Z,98477.81
2022-08-14T19:04:59.617Z,98473.41
2022-08-14T19:07:33.892Z,98476.34
2022-08-14T19:10:10.163Z,98479.81
2022-08-14T19:12:52.785Z,98489.84
2022-08-14T19:15:21.332Z,98486.16
2022-08-14T19:18:14.692Z,98481.13
2022-08-14T19:20:52.729Z,98486.88
2022-08-14T19:23:42.380Z,98483.53
2022-08-14T19:26:36.932Z,98478.44
2022-08-14T19:29:23.410Z,98481.41
2022-08-14T19:31:55.822Z,98478.28
2022-08-14T19:34:36.121Z,98480.09
2022-08-14T19:37:06.508Z,98480.41
2022-08-14T19:39:56.377Z,98485.63
2022-08-14T19:42:28.056Z,98483.56
2022-08-14T19:44:57.260Z,98483.16
2022-08-14T19:47:38.810Z,98488.72
2022-08-14T19:50:31.120Z,98490.69
2022-08-14T19:53:11.205Z,98488.56
2022-08-14T19:55:39.306Z,98491.16
2022-08-14T19:58:12.816Z,98492.41
2022-08-14T20:00:51.753Z,98493.97
2022-08-14T20:03:24.188Z,98490.56
2022-08-14T20:06:03.105Z,98487.94
2022-08-14T20:09:05.914Z,98493.81
2022-08-14T20:12:00.830Z,98497.41
2022-08-14T20:14:28.033Z,98498.94
2022-08-14T20:17:03.277Z,98497.22
2022-08-14T20:19:37.276Z,98494.41
2022-08-14T20:22:37.097Z,98501.47
2022-08-14T20:24:54.023Z,98500.97
2022-08-14T20:27:40.792Z,98491.41
2022-08-14T20:30:34.726Z,98498.19
2022-08-14T20:33:11.248Z,98491.78
2022-08-14T20:35:52.224Z,98496.47
2022-08-14T20:38:29.082Z,98489.81
2022-08-14T20:41:10.562Z,98495.88
2022-08-14T20:43:59.802Z,98499.81
2022-08-14T20:46:38.597Z,98485.81
2022-08-14T20:49:16.464Z,98489.59
2022-08-14T20:51:58.470Z,98485.84
2022-08-14T20:54:34.151Z,98489.34
2022-08-14T20:57:11.335Z,98498.16
2022-08-14T20:59:43.473Z,98485.13
2022-08-14T21:02:30.535Z,98491.50
2022-08-14T21:05:04.466Z,98487.75
2022-08-14T21:07:44.428Z,98485.97
2022-08-14T21:10:35.298Z,98487.16
2022-08-14T21:14:08.773Z,98484.59
2022-08-14T21:15:58.096Z,98487.63
2022-08-14T21:18:35.128Z,98490.09
2022-08-14T21:21:18.386Z,98495.38
2022-08-14T21:23:55.266Z,98491.03
2022-08-14T21:26:33.347Z,98495.50
2022-08-14T21:29:14.099Z,98488.13
2022-08-14T21:31:41.822Z,98497.72
2022-08-14T21:34:31.109Z,98489.72
2022-08-14T21:37:07.903Z,98480.00
2022-08-14T21:39:37.057Z,98483.03
2022-08-14T21:42:05.784Z,98481.06
2022-08-14T21:44:42.950Z,98482.44
2022-08-14T21:47:12.102Z,98476.00
2022-08-14T21:49:40.260Z,98475.31
2022-08-14T21:52:50.619Z,98483.63
2022-08-14T21:55:08.532Z,98482.44
2022-08-14T21:58:45.313Z,98479.69
2022-08-14T22:00:35.009Z,98479.38
2022-08-14T22:03:06.474Z,98484.97
2022-08-14T22:05:37.559Z,98475.00
2022-08-14T22:08:06.497Z,98475.16
2022-08-14T22:10:34.054Z,98478.66
2022-08-14T22:13:01.793Z,98486.16
2022-08-14T22:15:30.087Z,98481.94
2022-08-14T22:17:58.381Z,98471.72
2022-08-14T22:20:28.295Z,98476.66
2022-08-14T22:23:00.367Z,98475.91
2022-08-14T22:25:32.908Z,98481.66
2022-08-14T22:28:01.225Z,98478.75
2022-08-14T22:30:27.705Z,98468.13
2022-08-14T22:32:57.522Z,98469.88
2022-08-14T22:35:24.745Z,98465.44
2022-08-14T22:38:36.417Z,98470.97
2022-08-14T22:41:01.324Z,98464.03
2022-08-14T22:43:27.541Z,98472.78
2022-08-14T22:45:57.829Z,98461.56
2022-08-14T22:48:29.364Z,98470.31
2022-08-14T22:50:56.149Z,98471.63
2022-08-14T22:53:24.059Z,98466.81
2022-08-14T22:55:56.596Z,98468.91
2022-08-14T22:58:30.308Z,98479.69
2022-08-14T23:01:00.093Z,98465.53
2022-08-14T23:03:28.808Z,98466.22
2022-08-14T23:05:55.556Z,98472.41
2022-08-14T23:08:59.739Z,98471.63
2022-08-14T23:11:10.344Z,98458.09
2022-08-14T23:13:39.588Z,98454.88
2022-08-14T23:16:08.292Z,98455.75
2022-08-14T23:18:37.066Z,98460.00
2022-08-14T23:21:03.776Z,98467.47
2022-08-14T23:23:30.957Z,98448.25
2022-08-14T23:26:46.900Z,98447.78
2022-08-14T23:28:58.254Z,98458.19
2022-08-14T23:31:34.583Z,98470.09
2022-08-14T23:34:08.010Z,98454.03
2022-08-14T23:36:54.132Z,98465.22
2022-08-14T23:39:30.280Z,98473.06
2022-08-14T23:42:04.432Z,98465.66
2022-08-14T23:44:35.262Z,98460.19
2022-08-14T23:47:03.548Z,98462.09
2022-08-14T23:49:49.700Z,98459.03
2022-08-14T23:52:50.272Z,98455.56
2022-08-14T23:55:11.088Z,98449.94
2022-08-14T23:57:38.121Z,98459.22
